createdAt,value
2023-02-28T00:00:56.905Z,3.20
2023-02-28T00:11:42.634Z,3.88
2023-02-28T00:16:12.095Z,3.53
2023-02-28T00:20:36.718Z,3.55
2023-02-28T00:25:00.992Z,3.63
2023-02-28T00:35:48.099Z,3.85
2023-02-28T00:40:14.302Z,3.77
2023-02-28T00:44:39.869Z,3.60
2023-02-28T00:55:03.687Z,3.77
2023-02-28T00:59:28.597Z,3.75
2023-02-28T01:03:52.783Z,4.13
2023-02-28T01:08:18.609Z,3.67
2023-02-28T01:12:44.786Z,4.20
2023-02-28T01:17:09.500Z,3.78
2023-02-28T01:21:33.719Z,4.00
2023-02-28T01:25:57.941Z,3.70
2023-02-28T01:30:24.159Z,3.60
2023-02-28T01:34:49.214Z,3.63
2023-02-28T01:39:14.132Z,3.73
2023-02-28T01:44:05.730Z,3.03
2023-02-28T01:48:36.000Z,3.53
2023-02-28T01:53:02.929Z,3.40
2023-02-28T01:57:38.555Z,3.33
2023-02-28T02:02:03.916Z,3.45
2023-02-28T02:06:33.448Z,3.60
2023-02-28T02:10:59.958Z,3.40
2023-02-28T02:15:31.400Z,3.28
2023-02-28T02:20:22.935Z,3.40
2023-02-28T02:25:11.895Z,3.20
2023-02-28T02:30:02.380Z,2.90
2023-02-28T02:34:43.797Z,3.30
2023-02-28T02:39:16.078Z,3.45
2023-02-28T02:43:46.822Z,3.30
2023-02-28T02:48:16.248Z,3.75
2023-02-28T02:52:46.834Z,3.10
2023-02-28T02:57:15.290Z,3.63
2023-02-28T03:01:40.864Z,3.70
2023-02-28T03:06:07.004Z,3.35
2023-02-28T03:10:36.368Z,3.80
2023-02-28T03:15:10.152Z,3.45
2023-02-28T03:19:47.850Z,3.35
2023-02-28T03:24:17.666Z,3.38
2023-02-28T03:28:49.927Z,3.40
2023-02-28T03:33:17.910Z,3.58
2023-02-28T03:37:45.097Z,3.65
2023-02-28T03:42:13.158Z,3.43
2023-02-28T03:46:43.215Z,3.72
2023-02-28T03:51:11.317Z,3.90
2023-02-28T03:55:40.605Z,3.90
2023-02-28T04:00:10.328Z,3.70
2023-02-28T04:04:38.790Z,3.63
2023-02-28T04:09:02.877Z,3.25
2023-02-28T04:13:26.838Z,3.60
2023-02-28T04:17:50.896Z,3.70
2023-02-28T04:22:18.226Z,3.65
2023-02-28T04:26:44.551Z,4.00
2023-02-28T04:31:08.588Z,3.40
2023-02-28T04:35:32.713Z,3.70
2023-02-28T04:39:58.409Z,3.33
2023-02-28T04:44:22.424Z,3.60
2023-02-28T04:48:46.668Z,3.60
2023-02-28T04:53:10.829Z,3.70
2023-02-28T04:57:35.958Z,3.60
2023-02-28T05:01:59.990Z,3.38
2023-02-28T05:06:25.886Z,3.80
2023-02-28T05:10:49.800Z,3.40
2023-02-28T05:15:16.131Z,3.80
2023-02-28T05:19:40.343Z,3.88
2023-02-28T05:24:07.128Z,3.50
2023-02-28T05:28:32.195Z,4.10
2023-02-28T05:32:57.920Z,4.35
2023-02-28T05:37:22.814Z,3.50
2023-02-28T05:41:46.801Z,3.83
2023-02-28T05:46:12.970Z,4.05
2023-02-28T05:50:38.339Z,4.45
2023-02-28T05:55:02.727Z,4.13
2023-02-28T05:59:26.812Z,3.83
2023-02-28T06:03:50.801Z,4.00
2023-02-28T06:08:16.024Z,4.07
2023-02-28T06:12:40.524Z,3.90
2023-02-28T06:17:05.872Z,3.90
2023-02-28T06:21:30.709Z,4.65
2023-02-28T06:25:59.166Z,4.23
2023-02-28T06:30:26.287Z,4.78
2023-02-28T06:34:51.418Z,4.50
2023-02-28T06:39:15.320Z,4.53
2023-02-28T06:43:43.491Z,4.20
2023-02-28T06:48:07.969Z,4.38
2023-02-28T06:52:32.162Z,4.53
2023-02-28T06:56:56.389Z,4.18
2023-02-28T07:01:24.104Z,4.50
2023-02-28T07:05:48.274Z,4.13
2023-02-28T07:10:13.735Z,2.83
2023-02-28T07:14:39.568Z,4.57
2023-02-28T07:19:05.002Z,4.63
2023-02-28T07:23:29.950Z,4.17
2023-02-28T07:27:54.009Z,3.85
2023-02-28T07:32:18.043Z,3.95
2023-02-28T07:36:43.298Z,3.60
2023-02-28T07:41:07.540Z,4.63
2023-02-28T07:45:32.882Z,4.40
2023-02-28T07:49:56.736Z,4.20
2023-02-28T07:54:22.105Z,3.83
2023-02-28T07:58:46.140Z,4.10
2023-02-28T08:03:13.584Z,4.53
2023-02-28T08:07:38.007Z,4.57
2023-02-28T08:12:03.228Z,4.10
2023-02-28T08:16:27.172Z,4.05
2023-02-28T08:20:51.622Z,4.07
2023-02-28T08:25:15.687Z,3.92
2023-02-28T08:29:41.224Z,3.65
2023-02-28T08:34:08.198Z,3.92
2023-02-28T08:38:32.481Z,3.70
2023-02-28T08:42:56.485Z,3.50
2023-02-28T08:47:22.223Z,3.90
2023-02-28T08:51:46.631Z,3.10
2023-02-28T08:56:13.041Z,4.00
2023-02-28T09:00:37.681Z,4.00
2023-02-28T09:05:04.171Z,3.67
2023-02-28T09:09:28.254Z,2.90
2023-02-28T09:13:52.416Z,3.90
2023-02-28T09:18:17.123Z,3.45
2023-02-28T09:22:42.481Z,4.10
2023-02-28T09:27:07.146Z,2.92
2023-02-28T09:31:32.492Z,3.08
2023-02-28T09:36:01.618Z,3.63
2023-02-28T09:40:28.265Z,3.80
2023-02-28T09:44:53.596Z,3.70
2023-02-28T09:49:21.455Z,3.60
2023-02-28T09:53:50.456Z,3.65
2023-02-28T09:58:23.712Z,3.85
2023-02-28T10:03:29.382Z,3.80
2023-02-28T10:08:06.233Z,3.33
2023-02-28T10:12:34.442Z,3.03
2023-02-28T10:17:04.314Z,3.40
2023-02-28T10:21:36.350Z,3.53
2023-02-28T10:26:03.871Z,4.00
2023-02-28T10:30:30.011Z,3.92
2023-02-28T10:34:59.610Z,4.30
2023-02-28T10:39:48.517Z,3.00
2023-02-28T10:44:19.665Z,4.18
2023-02-28T10:48:46.770Z,4.05
2023-02-28T10:53:25.425Z,3.80
2023-02-28T10:57:49.564Z,3.90
2023-02-28T11:07:05.977Z,4.27
2023-02-28T11:11:44.189Z,4.30
2023-02-28T11:16:11.632Z,3.97
2023-02-28T11:20:36.873Z,5.03
2023-02-28T11:25:04.232Z,4.93
2023-02-28T11:29:31.997Z,4.80
2023-02-28T11:33:57.455Z,4.45
2023-02-28T11:38:21.606Z,4.03
2023-02-28T11:43:03.663Z,5.18
2023-02-28T11:47:36.414Z,5.38
2023-02-28T11:52:04.688Z,5.03
2023-02-28T11:56:35.172Z,4.65
2023-02-28T12:01:28.342Z,5.03
2023-02-28T12:06:00.449Z,5.03
2023-02-28T12:10:27.704Z,5.05
2023-02-28T12:15:36.473Z,4.32
2023-02-28T12:20:10.899Z,6.22
2023-02-28T12:24:59.568Z,5.37
2023-02-28T12:29:29.916Z,6.50
2023-02-28T12:33:57.522Z,5.57
2023-02-28T12:38:24.230Z,6.80
2023-02-28T12:42:54.051Z,6.80
2023-02-28T12:47:19.811Z,7.05
2023-02-28T12:51:44.179Z,7.00
2023-02-28T12:56:18.071Z,6.85
2023-02-28T13:00:53.134Z,5.43
2023-02-28T13:05:41.491Z,5.53
2023-02-28T13:10:08.646Z,5.13
2023-02-28T13:14:39.264Z,5.57
2023-02-28T13:19:14.556Z,5.90
2023-02-28T13:24:00.142Z,5.90
2023-02-28T13:29:09.506Z,6.10
2023-02-28T13:33:34.912Z,5.13
2023-02-28T13:38:25.496Z,5.87
2023-02-28T13:42:51.685Z,5.72
2023-02-28T13:47:30.308Z,5.88
2023-02-28T13:51:55.489Z,5.72
2023-02-28T13:56:36.137Z,6.03
2023-02-28T14:01:17.525Z,5.47
2023-02-28T14:05:42.188Z,6.03
2023-02-28T14:10:09.654Z,6.03
2023-02-28T14:15:00.496Z,5.47
2023-02-28T14:19:28.396Z,5.97
2023-02-28T14:24:18.918Z,5.73
2023-02-28T14:28:59.215Z,5.00
2023-02-28T14:33:34.211Z,6.03
2023-02-28T14:37:59.060Z,7.07
2023-02-28T14:42:34.954Z,5.70
2023-02-28T14:47:04.906Z,6.65
2023-02-28T14:51:30.444Z,6.18
2023-02-28T14:55:55.370Z,6.40
2023-02-28T15:00:24.912Z,7.00
2023-02-28T15:04:56.792Z,5.60
2023-02-28T15:09:22.843Z,6.47
2023-02-28T15:13:50.099Z,6.43
2023-02-28T15:18:24.894Z,5.88
2023-02-28T15:22:51.727Z,6.93
2023-02-28T15:27:23.844Z,5.93
2023-02-28T15:31:57.510Z,6.60
2023-02-28T15:36:24.332Z,6.72
2023-02-28T15:40:54.781Z,6.40
2023-02-28T15:45:38.569Z,7.00
2023-02-28T15:50:05.632Z,6.35
2023-02-28T15:54:32.824Z,6.70
2023-02-28T15:58:58.019Z,6.53
2023-02-28T16:03:39.570Z,5.25
2023-02-28T16:08:14.767Z,5.55
2023-02-28T16:12:41.314Z,5.07
2023-02-28T16:17:07.562Z,7.72
2023-02-28T16:21:34.085Z,6.75
2023-02-28T16:25:59.055Z,6.67
2023-02-28T16:30:25.434Z,7.35
2023-02-28T16:34:49.625Z,7.65
2023-02-28T16:39:15.365Z,6.73
2023-02-28T16:43:40.748Z,7.95
2023-02-28T16:48:05.053Z,7.57
2023-02-28T16:52:29.176Z,7.97
2023-02-28T16:56:54.523Z,7.97
2023-02-28T17:01:22.850Z,7.63
2023-02-28T17:05:47.264Z,7.40
2023-02-28T17:10:17.257Z,7.80
2023-02-28T17:14:42.845Z,8.10
2023-02-28T17:19:08.635Z,7.25
2023-02-28T17:23:32.680Z,7.60
2023-02-28T17:27:56.785Z,8.50
2023-02-28T17:32:18.270Z,8.98
2023-02-28T17:36:42.725Z,8.70
2023-02-28T17:41:07.007Z,7.67
2023-02-28T17:45:30.896Z,8.57
2023-02-28T17:49:59.022Z,8.88
2023-02-28T17:54:23.181Z,9.97
2023-02-28T17:58:47.132Z,9.48
2023-02-28T18:03:11.901Z,9.75
2023-02-28T18:07:38.849Z,9.43
2023-02-28T18:12:02.671Z,9.90
2023-02-28T18:16:27.481Z,11.35
2023-02-28T18:20:53.181Z,10.15
2023-02-28T18:25:17.062Z,10.33
2023-02-28T18:29:39.203Z,11.18
2023-02-28T18:33:57.730Z,11.85
2023-02-28T18:38:19.341Z,11.90
2023-02-28T18:42:39.274Z,10.80
2023-02-28T18:46:58.601Z,9.35
2023-02-28T18:51:18.638Z,8.97
2023-02-28T18:55:37.764Z,9.18
2023-02-28T18:59:56.657Z,10.18
2023-02-28T19:04:16.752Z,10.38
2023-02-28T19:08:34.524Z,8.97
2023-02-28T19:12:52.545Z,8.75
2023-02-28T19:17:12.010Z,10.30
2023-02-28T19:21:31.845Z,9.83
2023-02-28T19:25:49.972Z,10.90
2023-02-28T19:30:09.595Z,10.38
2023-02-28T19:34:30.291Z,11.00
2023-02-28T19:38:50.587Z,10.48
2023-02-28T19:43:08.487Z,10.40
2023-02-28T19:47:26.195Z,11.52
2023-02-28T19:51:48.161Z,12.63
2023-02-28T19:56:06.001Z,13.07
2023-02-28T20:00:23.659Z,12.77
2023-02-28T20:04:41.574Z,13.83
2023-02-28T20:09:01.108Z,13.20
2023-02-28T20:13:23.204Z,13.82
2023-02-28T20:17:46.814Z,14.73
2023-02-28T20:22:08.040Z,14.40
2023-02-28T20:26:29.109Z,13.57
2023-02-28T20:30:49.394Z,14.48
2023-02-28T20:35:11.733Z,14.97
2023-02-28T20:39:30.757Z,14.88
2023-02-28T20:43:54.760Z,13.02
2023-02-28T20:48:12.826Z,11.60
2023-02-28T20:52:31.028Z,13.60
2023-02-28T20:56:49.068Z,13.07
2023-02-28T21:01:12.819Z,12.87
2023-02-28T21:05:31.179Z,13.27
2023-02-28T21:09:49.242Z,13.23
2023-02-28T21:14:09.729Z,12.68
2023-02-28T21:18:30.390Z,12.43
2023-02-28T21:22:49.635Z,13.05
2023-02-28T21:27:09.009Z,12.95
2023-02-28T21:31:31.147Z,13.17
2023-02-28T21:35:52.884Z,13.23
2023-02-28T21:40:12.232Z,12.60
2023-02-28T21:44:34.571Z,13.27
2023-02-28T21:48:53.406Z,12.55
2023-02-28T21:53:12.906Z,12.50
2023-02-28T21:57:32.805Z,11.75
2023-02-28T22:01:52.022Z,12.60
2023-02-28T22:06:13.889Z,12.85
2023-02-28T22:10:35.540Z,11.30
2023-02-28T22:14:53.873Z,13.80
2023-02-28T22:19:12.350Z,12.13
2023-02-28T22:23:30.421Z,12.77
2023-02-28T22:27:50.058Z,12.90
2023-02-28T22:32:11.478Z,11.95
2023-02-28T22:36:31.373Z,11.25
2023-02-28T22:40:51.784Z,11.32
2023-02-28T22:45:12.674Z,11.37
2023-02-28T22:49:30.590Z,10.20
2023-02-28T22:53:49.983Z,11.32
2023-02-28T22:58:09.910Z,10.17
2023-02-28T23:02:30.114Z,10.10
2023-02-28T23:06:49.401Z,10.50
2023-02-28T23:11:07.039Z,9.57
2023-02-28T23:15:25.552Z,11.38
2023-02-28T23:19:44.600Z,10.93
2023-02-28T23:24:10.701Z,10.75
2023-02-28T23:28:28.594Z,10.93
2023-02-28T23:32:46.514Z,11.77
2023-02-28T23:37:05.942Z,11.80
2023-02-28T23:41:32.209Z,11.80
2023-02-28T23:45:56.756Z,11.98
2023-02-28T23:50:14.337Z,11.95
2023-02-28T23:54:33.855Z,11.07
2023-02-28T23:58:55.837Z,11.32
